sensor_id;sensor_type;location;lat;lon;timestamp;temperature;humidity
13320;DHT22;59599;47.608;12.190;2022-11-14T05:04:17;5.00;99.90
13320;DHT22;59599;47.608;12.190;2022-11-14T05:06:42;5.10;99.90
13320;DHT22;59599;47.608;12.190;2022-11-14T05:09:08;5.20;99.90
13320;DHT22;59599;47.608;12.190;2022-11-14T05:13:59;5.20;99.90
13320;DHT22;59599;47.608;12.190;2022-11-14T05:16:25;5.20;99.90
13320;DHT22;59599;47.608;12.190;2022-11-14T05:18:52;5.20;99.90
13320;DHT22;59599;47.608;12.190;2022-11-14T05:23:44;5.20;99.90
13320;DHT22;59599;47.608;12.190;2022-11-14T05:26:13;5.20;99.90
13320;DHT22;59599;47.608;12.190;2022-11-14T05:28:39;5.20;99.90
13320;DHT22;59599;47.608;12.190;2022-11-14T05:31:09;5.30;99.90
13320;DHT22;59599;47.608;12.190;2022-11-14T05:33:36;5.30;99.90
13320;DHT22;59599;47.608;12.190;2022-11-14T05:36:07;5.30;99.90
13320;DHT22;59599;47.608;12.190;2022-11-14T05:38:33;5.30;99.90
13320;DHT22;59599;47.608;12.190;2022-11-14T05:41:03;5.30;99.90
13320;DHT22;59599;47.608;12.190;2022-11-14T05:43:29;5.20;99.90
13320;DHT22;59599;47.608;12.190;2022-11-14T05:45:59;5.20;99.90
13320;DHT22;59599;47.608;12.190;2022-11-14T05:48:25;5.10;99.90
13320;DHT22;59599;47.608;12.190;2022-11-14T05:50:59;4.80;99.90
13320;DHT22;59599;47.608;12.190;2022-11-14T05:53:26;4.90;99.90
13320;DHT22;59599;47.608;12.190;2022-11-14T05:55:52;4.80;99.90
13320;DHT22;59599;47.608;12.190;2022-11-14T05:58:18;4.80;99.90
13320;DHT22;59599;47.608;12.190;2022-11-14T06:05:36;4.90;99.90
13320;DHT22;59599;47.608;12.190;2022-11-14T06:08:02;4.90;99.90
13320;DHT22;59599;47.608;12.190;2022-11-14T06:10:28;4.80;99.90
13320;DHT22;59599;47.608;12.190;2022-11-14T06:15:19;4.90;99.90
13320;DHT22;59599;47.608;12.190;2022-11-14T06:20:11;4.90;99.90
13320;DHT22;59599;47.608;12.190;2022-11-14T06:22:40;5.00;99.90
13320;DHT22;59599;47.608;12.190;2022-11-14T06:25:06;5.00;99.90
13320;DHT22;59599;47.608;12.190;2022-11-14T06:27:32;5.10;99.90
13320;DHT22;59599;47.608;12.190;2022-11-14T06:32:23;5.10;99.90
13320;DHT22;59599;47.608;12.190;2022-11-14T06:37:15;5.00;99.90
13320;DHT22;59599;47.608;12.190;2022-11-14T06:39:40;5.00;99.90
13320;DHT22;59599;47.608;12.190;2022-11-14T06:42:06;4.90;99.90
13320;DHT22;59599;47.608;12.190;2022-11-14T06:44:31;4.70;99.90
13320;DHT22;59599;47.608;12.190;2022-11-14T06:46:57;4.80;99.90
13320;DHT22;59599;47.608;12.190;2022-11-14T06:49:23;4.70;99.90
13320;DHT22;59599;47.608;12.190;2022-11-14T06:51:50;4.60;99.90
13320;DHT22;59599;47.608;12.190;2022-11-14T06:54:15;4.60;99.90
13320;DHT22;59599;47.608;12.190;2022-11-14T06:59:07;4.80;99.90
13320;DHT22;59599;47.608;12.190;2022-11-14T07:03:59;4.60;99.90
13320;DHT22;59599;47.608;12.190;2022-11-14T07:06:27;4.70;99.90
13320;DHT22;59599;47.608;12.190;2022-11-14T07:08:54;4.70;99.90
13320;DHT22;59599;47.608;12.190;2022-11-14T07:11:23;4.60;99.90
13320;DHT22;59599;47.608;12.190;2022-11-14T07:18:41;4.80;99.90
13320;DHT22;59599;47.608;12.190;2022-11-14T07:23:33;4.70;99.90
13320;DHT22;59599;47.608;12.190;2022-11-14T07:26:04;4.80;99.90
13320;DHT22;59599;47.608;12.190;2022-11-14T07:28:34;5.00;99.90
13320;DHT22;59599;47.608;12.190;2022-11-14T07:31:08;4.90;99.90
13320;DHT22;59599;47.608;12.190;2022-11-14T07:38:26;5.00;99.90
13320;DHT22;59599;47.608;12.190;2022-11-14T07:40:57;5.20;99.90
13320;DHT22;59599;47.608;12.190;2022-11-14T07:43:23;5.20;99.90
13320;DHT22;59599;47.608;12.190;2022-11-14T07:45:49;5.30;99.90
13320;DHT22;59599;47.608;12.190;2022-11-14T07:48:15;5.30;99.90
13320;DHT22;59599;47.608;12.190;2022-11-14T07:50:41;5.30;99.90
13320;DHT22;59599;47.608;12.190;2022-11-14T07:53:07;5.30;99.90
13320;DHT22;59599;47.608;12.190;2022-11-14T07:55:35;5.40;99.90
13320;DHT22;59599;47.608;12.190;2022-11-14T07:58:01;5.50;99.90
13320;DHT22;59599;47.608;12.190;2022-11-14T08:02:52;5.50;99.90
13320;DHT22;59599;47.608;12.190;2022-11-14T08:10:11;5.50;99.90
13320;DHT22;59599;47.608;12.190;2022-11-14T08:12:38;5.50;99.90
13320;DHT22;59599;47.608;12.190;2022-11-14T08:15:06;5.60;99.90
13320;DHT22;59599;47.608;12.190;2022-11-14T08:17:31;5.60;99.90
13320;DHT22;59599;47.608;12.190;2022-11-14T08:22:23;5.70;99.90
13320;DHT22;59599;47.608;12.190;2022-11-14T08:29:40;6.00;99.90
13320;DHT22;59599;47.608;12.190;2022-11-14T08:32:06;6.40;99.90
13320;DHT22;59599;47.608;12.190;2022-11-14T08:34:31;6.50;99.90
13320;DHT22;59599;47.608;12.190;2022-11-14T08:36:57;6.50;99.90
13320;DHT22;59599;47.608;12.190;2022-11-14T08:39:23;6.70;99.90
13320;DHT22;59599;47.608;12.190;2022-11-14T08:44:14;6.90;99.90
13320;DHT22;59599;47.608;12.190;2022-11-14T08:46:40;6.90;99.90
13320;DHT22;59599;47.608;12.190;2022-11-14T08:49:05;7.10;99.90
13320;DHT22;59599;47.608;12.190;2022-11-14T08:51:31;7.40;99.90
13320;DHT22;59599;47.608;12.190;2022-11-14T08:53:57;7.60;99.90
13320;DHT22;59599;47.608;12.190;2022-11-14T08:56:22;7.70;99.90
13320;DHT22;59599;47.608;12.190;2022-11-14T08:58:48;7.70;99.90
13320;DHT22;59599;47.608;12.190;2022-11-14T09:01:13;8.00;99.90
13320;DHT22;59599;47.608;12.190;2022-11-14T09:03:39;8.10;99.90
13320;DHT22;59599;47.608;12.190;2022-11-14T09:06:05;8.10;99.90
13320;DHT22;59599;47.608;12.190;2022-11-14T09:08:30;8.20;99.90
13320;DHT22;59599;47.608;12.190;2022-11-14T09:10:59;8.20;99.90
13320;DHT22;59599;47.608;12.190;2022-11-14T09:13:25;8.60;99.90
13320;DHT22;59599;47.608;12.190;2022-11-14T09:15:51;8.60;99.90
13320;DHT22;59599;47.608;12.190;2022-11-14T09:18:17;8.80;99.90
13320;DHT22;59599;47.608;12.190;2022-11-14T09:20:43;8.90;99.90
13320;DHT22;59599;47.608;12.190;2022-11-14T09:23:08;9.00;99.90
13320;DHT22;59599;47.608;12.190;2022-11-14T09:25:35;9.20;99.90
13320;DHT22;59599;47.608;12.190;2022-11-14T09:28:05;9.20;99.90
13320;DHT22;59599;47.608;12.190;2022-11-14T09:30:31;9.30;99.90
13320;DHT22;59599;47.608;12.190;2022-11-14T09:33:01;9.30;99.90
13320;DHT22;59599;47.608;12.190;2022-11-14T09:35:27;9.50;99.90
13320;DHT22;59599;47.608;12.190;2022-11-14T09:38:01;9.70;99.90
13320;DHT22;59599;47.608;12.190;2022-11-14T09:40:27;9.80;99.90
13320;DHT22;59599;47.608;12.190;2022-11-14T09:43:11;9.80;99.90
13320;DHT22;59599;47.608;12.190;2022-11-14T09:45:41;9.90;99.90
13320;DHT22;59599;47.608;12.190;2022-11-14T09:48:13;10.00;99.90
13320;DHT22;59599;47.608;12.190;2022-11-14T09:50:47;10.20;99.90
13320;DHT22;59599;47.608;12.190;2022-11-14T09:55:47;10.30;99.90
13320;DHT22;59599;47.608;12.190;2022-11-14T09:58:19;10.40;99.90
13320;DHT22;59599;47.608;12.190;2022-11-14T10:01:11;10.50;99.90
13320;DHT22;59599;47.608;12.190;2022-11-14T10:03:47;10.50;99.90
13320;DHT22;59599;47.608;12.190;2022-11-14T10:12:25;10.50;99.90
13320;DHT22;59599;47.608;12.190;2022-11-14T10:15:19;10.60;99.90
13320;DHT22;59599;47.608;12.190;2022-11-14T10:23:19;11.00;99.90
13320;DHT22;59599;47.608;12.190;2022-11-14T10:28:44;11.40;99.90
13320;DHT22;59599;47.608;12.190;2022-11-14T10:37:21;11.60;99.90
13320;DHT22;59599;47.608;12.190;2022-11-14T10:39:51;11.60;99.90
13320;DHT22;59599;47.608;12.190;2022-11-14T10:42:34;11.70;99.90
13320;DHT22;59599;47.608;12.190;2022-11-14T10:45:27;11.90;99.90
13320;DHT22;59599;47.608;12.190;2022-11-14T10:50:56;12.60;99.90
13320;DHT22;59599;47.608;12.190;2022-11-14T10:55:59;12.90;99.90
13320;DHT22;59599;47.608;12.190;2022-11-14T10:58:25;13.00;99.90
13320;DHT22;59599;47.608;12.190;2022-11-14T11:00:51;13.00;99.90
13320;DHT22;59599;47.608;12.190;2022-11-14T11:03:16;12.90;99.90
13320;DHT22;59599;47.608;12.190;2022-11-14T11:05:51;12.90;99.90
13320;DHT22;59599;47.608;12.190;2022-11-14T11:08:21;12.90;99.90
13320;DHT22;59599;47.608;12.190;2022-11-14T11:11:11;12.90;99.90
13320;DHT22;59599;47.608;12.190;2022-11-14T11:13:57;12.90;99.90
13320;DHT22;59599;47.608;12.190;2022-11-14T11:16:25;13.00;99.90
13320;DHT22;59599;47.608;12.190;2022-11-14T11:18:51;13.10;99.90
13320;DHT22;59599;47.608;12.190;2022-11-14T11:21:21;13.20;99.90
13320;DHT22;59599;47.608;12.190;2022-11-14T11:23:52;13.30;99.90
13320;DHT22;59599;47.608;12.190;2022-11-14T11:26:31;13.20;99.90
13320;DHT22;59599;47.608;12.190;2022-11-14T11:29:14;13.20;99.90
13320;DHT22;59599;47.608;12.190;2022-11-14T11:31:58;13.10;99.90
13320;DHT22;59599;47.608;12.190;2022-11-14T11:34:30;12.90;99.90
13320;DHT22;59599;47.608;12.190;2022-11-14T11:37:03;12.80;99.90
13320;DHT22;59599;47.608;12.190;2022-11-14T11:39:34;12.70;99.90
13320;DHT22;59599;47.608;12.190;2022-11-14T11:42:07;12.70;99.90
13320;DHT22;59599;47.608;12.190;2022-11-14T11:44:41;12.70;99.90
13320;DHT22;59599;47.608;12.190;2022-11-14T11:47:10;12.70;99.90
13320;DHT22;59599;47.608;12.190;2022-11-14T11:49:46;12.70;99.90
13320;DHT22;59599;47.608;12.190;2022-11-14T11:57:42;13.20;99.90
13320;DHT22;59599;47.608;12.190;2022-11-14T12:00:19;13.40;99.90
13320;DHT22;59599;47.608;12.190;2022-11-14T12:02:47;13.60;99.90
13320;DHT22;59599;47.608;12.190;2022-11-14T12:10:57;14.00;99.90
13320;DHT22;59599;47.608;12.190;2022-11-14T12:16:30;14.10;99.90
13320;DHT22;59599;47.608;12.190;2022-11-14T12:30:12;15.00;99.90
13320;DHT22;59599;47.608;12.190;2022-11-14T12:32:58;15.10;99.90
13320;DHT22;59599;47.608;12.190;2022-11-14T12:35:26;15.20;99.90
13320;DHT22;59599;47.608;12.190;2022-11-14T12:37:54;15.30;99.90
13320;DHT22;59599;47.608;12.190;2022-11-14T12:42:56;15.80;99.90
13320;DHT22;59599;47.608;12.190;2022-11-14T12:48:30;16.30;99.90
13320;DHT22;59599;47.608;12.190;2022-11-14T12:50:58;16.40;99.90
13320;DHT22;59599;47.608;12.190;2022-11-14T13:12:56;15.90;99.90
13320;DHT22;59599;47.608;12.190;2022-11-14T13:15:57;15.80;99.90
13320;DHT22;59599;47.608;12.190;2022-11-14T13:19:01;15.80;99.90
13320;DHT22;59599;47.608;12.190;2022-11-14T13:27:25;16.70;99.90
13320;DHT22;59599;47.608;12.190;2022-11-14T13:29:51;17.10;99.90
13320;DHT22;59599;47.608;12.190;2022-11-14T13:32:55;17.40;99.90
13320;DHT22;59599;47.608;12.190;2022-11-14T13:35:47;17.80;99.90
13320;DHT22;59599;47.608;12.190;2022-11-14T13:41:32;19.20;99.90
13320;DHT22;59599;47.608;12.190;2022-11-14T13:52:03;21.40;99.90
13320;DHT22;59599;47.608;12.190;2022-11-14T13:54:29;21.80;99.90
13320;DHT22;59599;47.608;12.190;2022-11-14T14:00:13;22.90;99.90
13320;DHT22;59599;47.608;12.190;2022-11-14T14:03:02;23.40;99.90
13320;DHT22;59599;47.608;12.190;2022-11-14T14:11:01;24.50;99.90
13320;DHT22;59599;47.608;12.190;2022-11-14T14:16:11;25.40;98.00
13320;DHT22;59599;47.608;12.190;2022-11-14T14:18:54;25.90;98.50
13320;DHT22;59599;47.608;12.190;2022-11-14T14:32:12;27.50;91.40
13320;DHT22;59599;47.608;12.190;2022-11-14T14:34:38;26.90;90.90
13320;DHT22;59599;47.608;12.190;2022-11-14T14:37:23;26.20;90.30
13320;DHT22;59599;47.608;12.190;2022-11-14T14:40:05;25.10;91.10
13320;DHT22;59599;47.608;12.190;2022-11-14T14:42:39;24.20;93.90
13320;DHT22;59599;47.608;12.190;2022-11-14T14:45:14;23.30;95.00
13320;DHT22;59599;47.608;12.190;2022-11-14T14:47:42;22.80;95.70
13320;DHT22;59599;47.608;12.190;2022-11-14T14:50:22;22.10;96.00
13320;DHT22;59599;47.608;12.190;2022-11-14T14:53:04;20.80;98.00
13320;DHT22;59599;47.608;12.190;2022-11-14T14:55:33;19.80;99.90
13320;DHT22;59599;47.608;12.190;2022-11-14T14:58:22;18.90;99.90
13320;DHT22;59599;47.608;12.190;2022-11-14T15:01:10;18.40;99.90
13320;DHT22;59599;47.608;12.190;2022-11-14T15:03:41;17.50;99.90
13320;DHT22;59599;47.608;12.190;2022-11-14T15:06:27;16.80;99.90
13320;DHT22;59599;47.608;12.190;2022-11-14T15:08:59;16.40;99.90
13320;DHT22;59599;47.608;12.190;2022-11-14T15:11:27;16.00;99.90
13320;DHT22;59599;47.608;12.190;2022-11-14T15:13:55;15.70;99.90
13320;DHT22;59599;47.608;12.190;2022-11-14T15:16:22;15.50;99.90
13320;DHT22;59599;47.608;12.190;2022-11-14T15:18:50;15.20;99.90
13320;DHT22;59599;47.608;12.190;2022-11-14T15:23:45;14.50;99.90
13320;DHT22;59599;47.608;12.190;2022-11-14T15:26:16;14.30;99.90
13320;DHT22;59599;47.608;12.190;2022-11-14T15:28:42;14.10;99.90
13320;DHT22;59599;47.608;12.190;2022-11-14T15:31:16;14.00;99.90
13320;DHT22;59599;47.608;12.190;2022-11-14T15:33:43;13.80;99.90
13320;DHT22;59599;47.608;12.190;2022-11-14T15:36:11;13.60;99.90
13320;DHT22;59599;47.608;12.190;2022-11-14T15:38:37;13.60;99.90
13320;DHT22;59599;47.608;12.190;2022-11-14T15:41:20;13.50;99.90
13320;DHT22;59599;47.608;12.190;2022-11-14T15:43:51;13.50;99.90
13320;DHT22;59599;47.608;12.190;2022-11-14T15:48:59;13.40;99.90
13320;DHT22;59599;47.608;12.190;2022-11-14T15:54:42;13.00;99.90
13320;DHT22;59599;47.608;12.190;2022-11-14T15:57:14;12.90;99.90
13320;DHT22;59599;47.608;12.190;2022-11-14T15:59:41;12.80;99.90
13320;DHT22;59599;47.608;12.190;2022-11-14T16:02:29;12.70;99.90
13320;DHT22;59599;47.608;12.190;2022-11-14T16:04:56;12.60;99.90
13320;DHT22;59599;47.608;12.190;2022-11-14T16:07:23;12.40;99.90
13320;DHT22;59599;47.608;12.190;2022-11-14T16:09:48;12.40;99.90
13320;DHT22;59599;47.608;12.190;2022-11-14T16:12:14;12.30;99.90
13320;DHT22;59599;47.608;12.190;2022-11-14T16:14:40;12.20;99.90
13320;DHT22;59599;47.608;12.190;2022-11-14T16:17:12;12.20;99.90
13320;DHT22;59599;47.608;12.190;2022-11-14T16:19:38;12.10;99.90
13320;DHT22;59599;47.608;12.190;2022-11-14T16:22:03;12.10;99.90
13320;DHT22;59599;47.608;12.190;2022-11-14T16:24:30;12.00;99.90
13320;DHT22;59599;47.608;12.190;2022-11-14T16:26:56;12.00;99.90
13320;DHT22;59599;47.608;12.190;2022-11-14T16:29:23;12.00;99.90
13320;DHT22;59599;47.608;12.190;2022-11-14T16:31:48;12.00;99.90
13320;DHT22;59599;47.608;12.190;2022-11-14T16:34:21;11.90;99.90
13320;DHT22;59599;47.608;12.190;2022-11-14T16:36:58;11.70;99.90
13320;DHT22;59599;47.608;12.190;2022-11-14T16:39:24;11.70;99.90
13320;DHT22;59599;47.608;12.190;2022-11-14T16:41:50;11.60;99.90
13320;DHT22;59599;47.608;12.190;2022-11-14T16:44:15;11.40;99.90
13320;DHT22;59599;47.608;12.190;2022-11-14T16:46:42;11.50;99.90
13320;DHT22;59599;47.608;12.190;2022-11-14T16:49:15;11.30;99.90
13320;DHT22;59599;47.608;12.190;2022-11-14T16:51:41;11.30;99.90
13320;DHT22;59599;47.608;12.190;2022-11-14T16:54:10;11.10;99.90
13320;DHT22;59599;47.608;12.190;2022-11-14T16:56:36;10.90;99.90
13320;DHT22;59599;47.608;12.190;2022-11-14T16:59:01;10.80;99.90
13320;DHT22;59599;47.608;12.190;2022-11-14T17:01:27;10.80;99.90
13320;DHT22;59599;47.608;12.190;2022-11-14T17:03:52;10.60;99.90
13320;DHT22;59599;47.608;12.190;2022-11-14T17:06:18;10.60;99.90
13320;DHT22;59599;47.608;12.190;2022-11-14T17:08:44;10.50;99.90
13320;DHT22;59599;47.608;12.190;2022-11-14T17:11:09;10.40;99.90
13320;DHT22;59599;47.608;12.190;2022-11-14T17:13:36;10.40;99.90
13320;DHT22;59599;47.608;12.190;2022-11-14T17:16:02;10.40;99.90
13320;DHT22;59599;47.608;12.190;2022-11-14T17:18:28;10.40;99.90
13320;DHT22;59599;47.608;12.190;2022-11-14T17:20:54;10.40;99.90
13320;DHT22;59599;47.608;12.190;2022-11-14T17:23:19;10.30;99.90
13320;DHT22;59599;47.608;12.190;2022-11-14T17:25:45;10.20;99.90
13320;DHT22;59599;47.608;12.190;2022-11-14T17:28:11;10.20;99.90
13320;DHT22;59599;47.608;12.190;2022-11-14T17:30:40;10.00;99.90
13320;DHT22;59599;47.608;12.190;2022-11-14T17:33:06;9.90;99.90
13320;DHT22;59599;47.608;12.190;2022-11-14T17:35:34;9.80;99.90
13320;DHT22;59599;47.608;12.190;2022-11-14T17:38:00;9.80;99.90
13320;DHT22;59599;47.608;12.190;2022-11-14T17:40:25;9.70;99.90
13320;DHT22;59599;47.608;12.190;2022-11-14T17:42:51;9.60;99.90
13320;DHT22;59599;47.608;12.190;2022-11-14T17:45:17;9.60;99.90
13320;DHT22;59599;47.608;12.190;2022-11-14T17:47:42;9.50;99.90
13320;DHT22;59599;47.608;12.190;2022-11-14T17:50:08;9.50;99.90
13320;DHT22;59599;47.608;12.190;2022-11-14T17:52:33;9.50;99.90
13320;DHT22;59599;47.608;12.190;2022-11-14T17:54:59;9.40;99.90
13320;DHT22;59599;47.608;12.190;2022-11-14T17:57:25;9.40;99.90
13320;DHT22;59599;47.608;12.190;2022-11-14T17:59:50;9.40;99.90
13320;DHT22;59599;47.608;12.190;2022-11-14T18:02:16;9.30;99.90
13320;DHT22;59599;47.608;12.190;2022-11-14T18:04:42;9.20;99.90
13320;DHT22;59599;47.608;12.190;2022-11-14T18:07:08;9.10;99.90
13320;DHT22;59599;47.608;12.190;2022-11-14T18:09:34;9.10;99.90
13320;DHT22;59599;47.608;12.190;2022-11-14T18:11:59;9.00;99.90
13320;DHT22;59599;47.608;12.190;2022-11-14T18:14:25;9.00;99.90
13320;DHT22;59599;47.608;12.190;2022-11-14T18:16:50;9.00;99.90
13320;DHT22;59599;47.608;12.190;2022-11-14T18:19:16;8.80;99.90
13320;DHT22;59599;47.608;12.190;2022-11-14T18:21:41;8.60;99.90
13320;DHT22;59599;47.608;12.190;2022-11-14T18:24:11;8.60;99.90
13320;DHT22;59599;47.608;12.190;2022-11-14T18:26:37;8.60;99.90
13320;DHT22;59599;47.608;12.190;2022-11-14T18:29:02;8.70;99.90
13320;DHT22;59599;47.608;12.190;2022-11-14T18:31:29;8.80;99.90
13320;DHT22;59599;47.608;12.190;2022-11-14T18:33:55;8.70;99.90
13320;DHT22;59599;47.608;12.190;2022-11-14T18:36:21;8.80;99.90
13320;DHT22;59599;47.608;12.190;2022-11-14T18:38:47;8.90;99.90
13320;DHT22;59599;47.608;12.190;2022-11-14T18:41:15;8.80;99.90
13320;DHT22;59599;47.608;12.190;2022-11-14T18:43:41;8.80;99.90
13320;DHT22;59599;47.608;12.190;2022-11-14T18:46:11;8.70;99.90
13320;DHT22;59599;47.608;12.190;2022-11-14T18:48:38;8.70;99.90
13320;DHT22;59599;47.608;12.190;2022-11-14T18:51:13;8.50;99.90
13320;DHT22;59599;47.608;12.190;2022-11-14T18:53:39;8.50;99.90
13320;DHT22;59599;47.608;12.190;2022-11-14T18:56:07;8.50;99.90
13320;DHT22;59599;47.608;12.190;2022-11-14T18:58:33;8.50;99.90
13320;DHT22;59599;47.608;12.190;2022-11-14T19:01:11;8.60;99.90
13320;DHT22;59599;47.608;12.190;2022-11-14T19:03:37;8.50;99.90
13320;DHT22;59599;47.608;12.190;2022-11-14T19:06:03;8.50;99.90
13320;DHT22;59599;47.608;12.190;2022-11-14T19:08:29;8.30;99.90
13320;DHT22;59599;47.608;12.190;2022-11-14T19:11:07;8.20;99.90
13320;DHT22;59599;47.608;12.190;2022-11-14T19:13:33;8.20;99.90
13320;DHT22;59599;47.608;12.190;2022-11-14T19:16:03;8.10;99.90
13320;DHT22;59599;47.608;12.190;2022-11-14T19:18:30;8.10;99.90
13320;DHT22;59599;47.608;12.190;2022-11-14T19:21:00;8.10;99.90
13320;DHT22;59599;47.608;12.190;2022-11-14T19:23:27;8.10;99.90
13320;DHT22;59599;47.608;12.190;2022-11-14T19:25:57;8.10;99.90
13320;DHT22;59599;47.608;12.190;2022-11-14T19:28:24;8.10;99.90
13320;DHT22;59599;47.608;12.190;2022-11-14T19:30:50;8.10;99.90
13320;DHT22;59599;47.608;12.190;2022-11-14T19:33:16;8.10;99.90
13320;DHT22;59599;47.608;12.190;2022-11-14T19:35:41;8.10;99.90
13320;DHT22;59599;47.608;12.190;2022-11-14T19:38:07;8.00;99.90
13320;DHT22;59599;47.608;12.190;2022-11-14T19:40:36;8.10;99.90
13320;DHT22;59599;47.608;12.190;2022-11-14T19:43:01;7.90;99.90
13320;DHT22;59599;47.608;12.190;2022-11-14T19:45:32;7.80;99.90
13320;DHT22;59599;47.608;12.190;2022-11-14T19:47:58;7.80;99.90
13320;DHT22;59599;47.608;12.190;2022-11-14T19:50:24;7.80;99.90
13320;DHT22;59599;47.608;12.190;2022-11-14T19:52:50;7.80;99.90
13320;DHT22;59599;47.608;12.190;2022-11-14T19:55:17;7.70;99.90
13320;DHT22;59599;47.608;12.190;2022-11-14T19:57:42;7.80;99.90
13320;DHT22;59599;47.608;12.190;2022-11-14T20:00:08;7.80;99.90
13320;DHT22;59599;47.608;12.190;2022-11-14T20:02:34;7.80;99.90
13320;DHT22;59599;47.608;12.190;2022-11-14T20:05:04;7.80;99.90
13320;DHT22;59599;47.608;12.190;2022-11-14T20:07:29;7.70;99.90
13320;DHT22;59599;47.608;12.190;2022-11-14T20:09:57;7.70;99.90
13320;DHT22;59599;47.608;12.190;2022-11-14T20:12:22;7.50;99.90
13320;DHT22;59599;47.608;12.190;2022-11-14T20:14:48;7.30;99.90
13320;DHT22;59599;47.608;12.190;2022-11-14T20:17:14;7.20;99.90
13320;DHT22;59599;47.608;12.190;2022-11-14T20:19:39;7.20;99.90
13320;DHT22;59599;47.608;12.190;2022-11-14T20:22:05;7.30;99.90
13320;DHT22;59599;47.608;12.190;2022-11-14T20:24:31;7.20;99.90
13320;DHT22;59599;47.608;12.190;2022-11-14T20:26:56;7.30;99.90
13320;DHT22;59599;47.608;12.190;2022-11-14T20:29:22;7.40;99.90
13320;DHT22;59599;47.608;12.190;2022-11-14T20:31:48;7.40;99.90
13320;DHT22;59599;47.608;12.190;2022-11-14T20:34:13;7.50;99.90
13320;DHT22;59599;47.608;12.190;2022-11-14T20:36:39;7.50;99.90
13320;DHT22;59599;47.608;12.190;2022-11-14T20:39:05;7.50;99.90
13320;DHT22;59599;47.608;12.190;2022-11-14T20:41:31;7.40;99.90
13320;DHT22;59599;47.608;12.190;2022-11-14T20:43:56;7.40;99.90
13320;DHT22;59599;47.608;12.190;2022-11-14T20:46:22;7.40;99.90
13320;DHT22;59599;47.608;12.190;2022-11-14T20:48:48;7.40;99.90
13320;DHT22;59599;47.608;12.190;2022-11-14T20:51:15;7.30;99.90
13320;DHT22;59599;47.608;12.190;2022-11-14T20:53:42;7.30;99.90
13320;DHT22;59599;47.608;12.190;2022-11-14T20:56:08;7.20;99.90
13320;DHT22;59599;47.608;12.190;2022-11-14T20:58:34;7.10;99.90
13320;DHT22;59599;47.608;12.190;2022-11-14T21:01:00;6.80;99.90
13320;DHT22;59599;47.608;12.190;2022-11-14T21:03:26;6.60;99.90
13320;DHT22;59599;47.608;12.190;2022-11-14T21:05:52;6.70;99.90
13320;DHT22;59599;47.608;12.190;2022-11-14T21:08:17;6.80;99.90
13320;DHT22;59599;47.608;12.190;2022-11-14T21:10:46;6.90;99.90
13320;DHT22;59599;47.608;12.190;2022-11-14T21:13:17;7.00;99.90
13320;DHT22;59599;47.608;12.190;2022-11-14T21:16:04;7.00;99.90
13320;DHT22;59599;47.608;12.190;2022-11-14T21:18:31;7.00;99.90
13320;DHT22;59599;47.608;12.190;2022-11-14T21:21:04;7.00;99.90
13320;DHT22;59599;47.608;12.190;2022-11-14T21:23:31;6.90;99.90
13320;DHT22;59599;47.608;12.190;2022-11-14T21:26:14;6.90;99.90
13320;DHT22;59599;47.608;12.190;2022-11-14T21:28:42;6.90;99.90
13320;DHT22;59599;47.608;12.190;2022-11-14T21:31:19;7.00;99.90
13320;DHT22;59599;47.608;12.190;2022-11-14T21:33:47;6.90;99.90
13320;DHT22;59599;47.608;12.190;2022-11-14T21:36:13;6.80;99.90
13320;DHT22;59599;47.608;12.190;2022-11-14T21:38:39;6.90;99.90
13320;DHT22;59599;47.608;12.190;2022-11-14T21:41:05;6.80;99.90
13320;DHT22;59599;47.608;12.190;2022-11-14T21:43:31;6.90;99.90
13320;DHT22;59599;47.608;12.190;2022-11-14T21:45:59;6.90;99.90
13320;DHT22;59599;47.608;12.190;2022-11-14T21:48:28;6.80;99.90
13320;DHT22;59599;47.608;12.190;2022-11-14T21:51:08;6.80;99.90
13320;DHT22;59599;47.608;12.190;2022-11-14T21:53:35;6.80;99.90
13320;DHT22;59599;47.608;12.190;2022-11-14T21:58:32;6.80;99.90
13320;DHT22;59599;47.608;12.190;2022-11-14T22:01:09;6.60;99.90
13320;DHT22;59599;47.608;12.190;2022-11-14T22:03:36;6.70;99.90
13320;DHT22;59599;47.608;12.190;2022-11-14T22:06:21;6.50;99.90
13320;DHT22;59599;47.608;12.190;2022-11-14T22:08:50;6.50;99.90
13320;DHT22;59599;47.608;12.190;2022-11-14T22:11:16;6.40;99.90
13320;DHT22;59599;47.608;12.190;2022-11-14T22:13:41;6.30;99.90
13320;DHT22;59599;47.608;12.190;2022-11-14T22:16:08;6.20;99.90
13320;DHT22;59599;47.608;12.190;2022-11-14T22:18:34;6.20;99.90
13320;DHT22;59599;47.608;12.190;2022-11-14T22:20:59;6.20;99.90
13320;DHT22;59599;47.608;12.190;2022-11-14T22:23:26;6.30;99.90
13320;DHT22;59599;47.608;12.190;2022-11-14T22:25:56;6.40;99.90
13320;DHT22;59599;47.608;12.190;2022-11-14T22:28:22;6.30;99.90
13320;DHT22;59599;47.608;12.190;2022-11-14T22:30:48;6.40;99.90
13320;DHT22;59599;47.608;12.190;2022-11-14T22:33:24;6.40;99.90
13320;DHT22;59599;47.608;12.190;2022-11-14T22:35:49;6.50;99.90
13320;DHT22;59599;47.608;12.190;2022-11-14T22:38:15;6.60;99.90
13320;DHT22;59599;47.608;12.190;2022-11-14T22:40:40;6.70;99.90
13320;DHT22;59599;47.608;12.190;2022-11-14T22:43:06;6.70;99.90
13320;DHT22;59599;47.608;12.190;2022-11-14T22:45:31;6.60;99.90
13320;DHT22;59599;47.608;12.190;2022-11-14T22:47:57;6.60;99.90
13320;DHT22;59599;47.608;12.190;2022-11-14T22:50:23;6.50;99.90
13320;DHT22;59599;47.608;12.190;2022-11-14T22:52:48;6.60;99.90
13320;DHT22;59599;47.608;12.190;2022-11-14T22:55:14;6.50;99.90
13320;DHT22;59599;47.608;12.190;2022-11-14T22:57:39;6.50;99.90
